createdAt,value
2023-01-04T00:00:21.159Z,1.1
2023-01-04T00:30:22.004Z,0
2023-01-04T01:00:21.972Z,0.2
2023-01-04T01:30:08.503Z,-0.2
2023-01-04T02:00:10.713Z,0.5
2023-01-04T02:30:25.729Z,0.4
2023-01-04T03:00:25.556Z,0.8
2023-01-04T03:30:05.178Z,0.8
2023-01-04T04:00:11.722Z,1.3
2023-01-04T04:30:21.127Z,1.8
2023-01-04T05:00:28.289Z,1.4
2023-01-04T05:30:13.346Z,0.7
2023-01-04T06:00:29.468Z,1.4
2023-01-04T06:30:01.125Z,0.8
2023-01-04T07:00:16.600Z,2.4
2023-01-04T07:30:01.961Z,3.7
2023-01-04T08:00:24.056Z,3.7
2023-01-04T08:30:24.486Z,4
2023-01-04T09:00:16.723Z,4.4
2023-01-04T09:30:01.911Z,4.9
2023-01-04T10:00:18.246Z,5.6
2023-01-04T10:30:02.406Z,5.7
2023-01-04T11:00:04.684Z,6.7
2023-01-04T11:30:04.685Z,7.1
2023-01-04T12:00:20.169Z,7.2
2023-01-04T12:30:28.461Z,7.6
2023-01-04T13:00:28.549Z,7.2
2023-01-04T13:30:20.064Z,7.3
2023-01-04T14:00:21.605Z,7.3
2023-01-04T14:30:22.263Z,7.1
2023-01-04T15:00:21.591Z,7.2
2023-01-04T16:00:02.791Z,7.4
2023-01-04T16:30:11.975Z,7.6
2023-01-04T17:00:18.335Z,7.7
2023-01-04T17:30:18.289Z,7.3
2023-01-04T18:00:04.449Z,7.3
2023-01-04T18:30:26.864Z,7
2023-01-04T19:00:12.375Z,6.6
2023-01-04T19:30:13.167Z,6.7
2023-01-04T20:00:28.571Z,6.7
2023-01-04T20:30:30.025Z,6.7
2023-01-04T21:00:16.196Z,7.1
2023-01-04T21:30:17.212Z,7.1
2023-01-04T22:00:02.554Z,7.3
2023-01-04T22:30:24.170Z,7.4
2023-01-04T23:00:09.748Z,7.3
2023-01-04T23:30:24.784Z,7.4
